createdAt,value
2019-01-08T00:00:48.065Z,1.10
2019-01-08T00:03:29.574Z,0.90
2019-01-08T00:06:11.562Z,0.70
2019-01-08T00:08:53.054Z,0.80
2019-01-08T00:11:35.260Z,1.03
2019-01-08T00:14:17.069Z,0.90
2019-01-08T00:16:59.282Z,0.97
2019-01-08T00:19:29.539Z,0.90
2019-01-08T00:22:11.116Z,0.90
2019-01-08T00:24:41.322Z,1.00
2019-01-08T00:27:23.613Z,0.83
2019-01-08T00:30:05.774Z,0.90
2019-01-08T00:32:47.669Z,0.80
2019-01-08T00:35:29.697Z,0.90
2019-01-08T00:38:12.094Z,1.00
2019-01-08T00:40:54.214Z,1.00
2019-01-08T00:43:35.674Z,0.80
2019-01-08T00:46:17.979Z,0.70
2019-01-08T00:48:59.926Z,1.03
2019-01-08T00:51:42.425Z,1.30
2019-01-08T00:54:24.726Z,1.37
2019-01-08T00:57:07.018Z,1.70
2019-01-08T00:59:49.104Z,1.90
2019-01-08T01:02:31.261Z,2.23
2019-01-08T01:05:13.590Z,3.30
2019-01-08T01:07:55.408Z,3.70
2019-01-08T01:10:37.356Z,4.17
2019-01-08T01:13:19.552Z,4.83
2019-01-08T01:16:01.722Z,5.03
2019-01-08T01:18:43.847Z,6.07
2019-01-08T01:21:26.022Z,6.50
2019-01-08T01:23:56.250Z,7.17
2019-01-08T01:26:37.836Z,6.40
2019-01-08T01:29:19.854Z,6.60
2019-01-08T01:32:01.960Z,7.23
2019-01-08T01:34:43.337Z,8.13
2019-01-08T01:37:25.302Z,8.60
2019-01-08T01:40:07.049Z,8.30
2019-01-08T01:42:49.228Z,6.83
2019-01-08T01:45:31.260Z,7.53
2019-01-08T01:48:13.302Z,6.13
2019-01-08T01:50:55.394Z,5.43
2019-01-08T01:53:37.237Z,4.43
2019-01-08T01:56:19.455Z,5.27
2019-01-08T01:59:08.126Z,3.87
2019-01-08T02:01:44.219Z,4.67
2019-01-08T02:04:26.174Z,4.00
2019-01-08T02:07:08.190Z,4.23
2019-01-08T02:09:51.092Z,4.07
2019-01-08T02:12:32.988Z,4.10
2019-01-08T02:15:15.125Z,4.60
2019-01-08T02:17:56.998Z,3.77
2019-01-08T02:20:38.803Z,3.77
2019-01-08T02:23:20.735Z,4.80
2019-01-08T02:26:02.822Z,4.80
2019-01-08T02:28:44.604Z,4.87
2019-01-08T02:31:26.214Z,5.50
2019-01-08T02:34:07.934Z,6.20
2019-01-08T02:36:49.597Z,6.77
2019-01-08T02:39:31.407Z,5.83
2019-01-08T02:42:12.853Z,6.63
2019-01-08T02:44:54.993Z,6.50
2019-01-08T02:47:37.281Z,6.90
2019-01-08T02:50:19.274Z,5.93
2019-01-08T02:53:01.317Z,5.63
2019-01-08T02:55:43.433Z,6.43
2019-01-08T02:58:26.173Z,6.27
2019-01-08T03:01:07.803Z,6.20
2019-01-08T03:03:49.645Z,6.20
2019-01-08T03:06:31.617Z,6.30
2019-01-08T03:09:13.927Z,7.27
2019-01-08T03:11:56.309Z,5.13
2019-01-08T03:14:38.336Z,5.60
2019-01-08T03:17:20.541Z,5.90
2019-01-08T03:20:02.627Z,5.67
2019-01-08T03:22:44.671Z,6.43
2019-01-08T03:25:26.892Z,5.53
2019-01-08T03:28:09.084Z,5.77
2019-01-08T03:30:50.617Z,5.23
2019-01-08T03:33:32.838Z,5.53
2019-01-08T03:36:15.037Z,4.93
2019-01-08T03:38:56.819Z,5.27
2019-01-08T03:41:38.938Z,5.37
2019-01-08T03:44:20.989Z,5.17
2019-01-08T03:47:03.040Z,4.83
2019-01-08T03:49:45.219Z,4.83
2019-01-08T03:52:27.555Z,4.67
2019-01-08T03:55:09.745Z,4.93
2019-01-08T03:57:51.662Z,4.70
2019-01-08T04:00:33.655Z,5.17
2019-01-08T04:03:03.901Z,4.80
2019-01-08T04:05:53.141Z,4.20
2019-01-08T04:08:34.994Z,4.20
2019-01-08T04:11:16.737Z,5.03
2019-01-08T04:13:58.515Z,4.20
2019-01-08T04:16:41.520Z,4.20
2019-01-08T04:19:23.593Z,3.93
2019-01-08T04:22:05.642Z,4.57
2019-01-08T04:24:47.713Z,4.47
2019-01-08T04:27:29.977Z,5.13
2019-01-08T04:30:11.964Z,4.43
2019-01-08T04:32:53.919Z,4.40
2019-01-08T04:35:36.161Z,5.23
2019-01-08T04:38:17.602Z,4.10
2019-01-08T04:41:00.468Z,4.40
2019-01-08T04:43:42.435Z,4.53
2019-01-08T04:46:23.882Z,4.60
2019-01-08T04:49:05.845Z,4.83
2019-01-08T04:51:47.952Z,4.60
2019-01-08T04:54:29.527Z,4.53
2019-01-08T04:57:11.550Z,4.70
2019-01-08T04:59:42.356Z,4.80
2019-01-08T05:02:31.648Z,4.13
2019-01-08T05:05:13.478Z,4.47
2019-01-08T05:07:55.742Z,4.50
2019-01-08T05:10:37.605Z,4.80
2019-01-08T05:13:20.013Z,4.77
2019-01-08T05:16:01.863Z,5.20
2019-01-08T05:18:44.214Z,4.20
2019-01-08T05:21:26.186Z,4.40
2019-01-08T05:24:08.221Z,5.13
2019-01-08T05:26:50.567Z,4.23
2019-01-08T05:29:32.830Z,4.47
2019-01-08T05:32:14.690Z,4.47
2019-01-08T05:34:56.980Z,4.67
2019-01-08T05:37:38.765Z,4.53
2019-01-08T05:40:20.709Z,3.77
2019-01-08T05:43:02.690Z,4.17
2019-01-08T05:45:45.345Z,5.33
2019-01-08T05:48:26.945Z,4.90
2019-01-08T05:51:08.846Z,6.20
2019-01-08T05:53:50.570Z,4.33
2019-01-08T05:56:32.609Z,5.23
2019-01-08T05:59:14.570Z,4.47
2019-01-08T06:01:56.487Z,6.07
2019-01-08T06:04:38.518Z,4.50
2019-01-08T06:07:20.855Z,4.47
2019-01-08T06:09:51.100Z,5.97
2019-01-08T06:12:40.358Z,4.73
2019-01-08T06:15:21.946Z,5.27
2019-01-08T06:17:52.423Z,5.17
2019-01-08T06:20:41.694Z,5.97
2019-01-08T06:23:11.923Z,5.70
2019-01-08T06:26:01.170Z,5.53
2019-01-08T06:28:43.273Z,4.90
2019-01-08T06:31:25.208Z,5.37
2019-01-08T06:34:08.485Z,4.47
2019-01-08T06:36:50.569Z,5.10
2019-01-08T06:39:32.246Z,4.50
2019-01-08T06:42:14.039Z,4.93
2019-01-08T06:44:56.167Z,4.90
2019-01-08T06:47:38.309Z,5.20
2019-01-08T06:50:20.558Z,4.50
2019-01-08T06:53:02.613Z,5.83
2019-01-08T06:55:44.369Z,4.77
2019-01-08T06:58:26.767Z,4.73
2019-01-08T07:00:57.151Z,5.47
2019-01-08T07:03:46.495Z,5.23
2019-01-08T07:06:31.126Z,4.57
2019-01-08T07:09:13.573Z,6.57
2019-01-08T07:11:56.102Z,5.03
2019-01-08T07:14:37.674Z,4.93
2019-01-08T07:17:19.989Z,4.90
2019-01-08T07:20:02.090Z,5.13
2019-01-08T07:22:44.133Z,4.43
2019-01-08T07:25:26.502Z,5.53
2019-01-08T07:28:08.658Z,5.03
2019-01-08T07:30:50.996Z,5.60
2019-01-08T07:33:33.283Z,5.13
2019-01-08T07:36:15.083Z,5.00
2019-01-08T07:38:57.330Z,5.10
2019-01-08T07:41:39.797Z,5.03
2019-01-08T07:44:21.569Z,5.60
2019-01-08T07:47:03.902Z,4.83
2019-01-08T07:49:45.942Z,4.90
2019-01-08T07:52:28.226Z,5.20
2019-01-08T07:55:10.243Z,4.87
2019-01-08T07:57:52.231Z,5.23
2019-01-08T08:00:34.501Z,4.93
2019-01-08T08:03:15.983Z,4.00
2019-01-08T08:05:58.147Z,4.27
2019-01-08T08:08:40.430Z,5.53
2019-01-08T08:11:22.863Z,5.00
2019-01-08T08:14:05.219Z,4.83
2019-01-08T08:16:47.339Z,5.23
2019-01-08T08:19:29.527Z,3.87
2019-01-08T08:22:11.872Z,5.07
2019-01-08T08:24:55.948Z,5.10
2019-01-08T08:27:38.164Z,5.63
2019-01-08T08:30:20.194Z,5.17
2019-01-08T08:33:01.798Z,5.30
2019-01-08T08:35:43.908Z,3.23
2019-01-08T08:38:14.615Z,2.90
2019-01-08T08:41:03.853Z,3.90
2019-01-08T08:43:45.601Z,4.27
2019-01-08T08:46:28.059Z,4.43
2019-01-08T08:49:10.207Z,5.10
2019-01-08T08:51:52.089Z,5.30
2019-01-08T08:54:33.853Z,4.50
2019-01-08T08:57:16.179Z,5.23
2019-01-08T08:59:58.441Z,5.17
2019-01-08T09:02:40.204Z,4.77
2019-01-08T09:05:22.486Z,4.60
2019-01-08T09:08:04.354Z,4.33
2019-01-08T09:10:46.682Z,4.60
2019-01-08T09:13:28.614Z,4.23
2019-01-08T09:16:11.005Z,5.17
2019-01-08T09:18:53.115Z,3.20
2019-01-08T09:21:35.153Z,4.27
2019-01-08T09:24:17.236Z,3.67
2019-01-08T09:26:59.113Z,4.47
2019-01-08T09:29:41.036Z,4.33
2019-01-08T09:32:22.835Z,4.23
2019-01-08T09:35:04.803Z,4.13
2019-01-08T09:37:46.872Z,3.70
2019-01-08T09:40:28.843Z,3.37
2019-01-08T09:43:10.626Z,4.40
2019-01-08T09:45:52.089Z,3.70
2019-01-08T09:48:34.167Z,4.83
2019-01-08T09:51:15.914Z,4.67
2019-01-08T09:53:58.173Z,5.60
2019-01-08T09:56:40.199Z,4.47
2019-01-08T09:59:22.371Z,4.33
2019-01-08T10:02:04.506Z,4.83
2019-01-08T10:04:46.451Z,4.27
2019-01-08T10:07:28.902Z,4.00
2019-01-08T10:10:10.825Z,5.33
2019-01-08T10:12:53.577Z,5.03
2019-01-08T10:15:23.866Z,4.90
2019-01-08T10:18:05.949Z,4.20
2019-01-08T10:20:47.942Z,3.80
2019-01-08T10:23:30.013Z,4.47
2019-01-08T10:26:12.091Z,3.83
2019-01-08T10:28:54.230Z,4.47
2019-01-08T10:31:32.317Z,3.93
2019-01-08T10:34:25.386Z,4.07
2019-01-08T10:37:07.598Z,3.03
2019-01-08T10:39:49.998Z,4.07
2019-01-08T10:42:32.033Z,3.87
2019-01-08T10:45:14.194Z,3.50
2019-01-08T10:47:56.475Z,4.30
2019-01-08T10:50:26.784Z,4.30
2019-01-08T10:53:16.072Z,4.33
2019-01-08T10:55:58.311Z,4.37
2019-01-08T10:58:40.333Z,4.43
2019-01-08T11:01:21.924Z,4.60
2019-01-08T11:04:04.096Z,3.70
2019-01-08T11:06:45.967Z,4.07
2019-01-08T11:09:27.915Z,4.00
2019-01-08T11:12:09.782Z,3.70
2019-01-08T11:14:51.562Z,3.57
2019-01-08T11:17:33.655Z,3.50
2019-01-08T11:20:15.711Z,3.43
2019-01-08T11:22:57.838Z,3.63
2019-01-08T11:25:40.052Z,3.87
2019-01-08T11:28:22.132Z,3.53
2019-01-08T11:31:04.470Z,4.53
2019-01-08T11:33:46.625Z,4.10
2019-01-08T11:36:28.729Z,4.23
2019-01-08T11:39:10.797Z,4.03
2019-01-08T11:44:55.214Z,3.73
2019-01-08T11:47:37.139Z,4.53
2019-01-08T11:50:18.895Z,3.67
2019-01-08T11:53:01.294Z,3.87
2019-01-08T11:55:43.226Z,4.20
2019-01-08T11:58:25.361Z,4.23
2019-01-08T12:01:07.463Z,4.53
2019-01-08T12:03:49.906Z,4.33
2019-01-08T12:06:32.409Z,4.87
2019-01-08T12:09:14.222Z,4.07
2019-01-08T12:11:56.372Z,3.93
2019-01-08T12:14:39.577Z,3.83
2019-01-08T12:17:24.747Z,4.43
2019-01-08T12:20:06.779Z,4.57
2019-01-08T12:22:48.702Z,4.60
2019-01-08T12:25:31.024Z,3.97
2019-01-08T12:28:13.208Z,5.53
2019-01-08T12:30:55.118Z,3.63
2019-01-08T12:33:37.466Z,4.23
2019-01-08T12:36:19.684Z,5.07
2019-01-08T12:39:02.074Z,3.80
2019-01-08T12:41:44.657Z,3.67
2019-01-08T12:44:26.968Z,3.83
2019-01-08T12:47:09.183Z,2.67
2019-01-08T12:49:51.266Z,3.27
2019-01-08T12:52:33.072Z,2.77
2019-01-08T12:55:14.702Z,2.73
2019-01-08T12:57:57.024Z,2.37
2019-01-08T13:00:38.879Z,2.83
2019-01-08T13:03:21.142Z,2.80
2019-01-08T13:06:02.837Z,3.37
2019-01-08T13:08:44.823Z,3.90
2019-01-08T13:11:26.665Z,4.17
2019-01-08T13:14:09.986Z,3.47
2019-01-08T13:16:52.020Z,4.10
2019-01-08T13:19:33.965Z,4.47
2019-01-08T13:22:15.976Z,4.57
2019-01-08T13:24:46.455Z,4.87
2019-01-08T13:27:43.815Z,4.60
2019-01-08T13:30:25.991Z,4.73
2019-01-08T13:33:07.674Z,4.90
2019-01-08T13:35:49.731Z,4.87
2019-01-08T13:38:31.746Z,4.67
2019-01-08T13:41:13.445Z,4.57
2019-01-08T13:43:55.492Z,3.50
2019-01-08T13:46:37.335Z,4.87
2019-01-08T13:49:19.638Z,4.83
2019-01-08T13:52:01.655Z,5.57
2019-01-08T13:54:47.621Z,4.27
2019-01-08T13:57:31.012Z,4.73
2019-01-08T14:00:13.177Z,4.50
2019-01-08T14:02:55.544Z,5.80
2019-01-08T14:05:37.569Z,6.77
2019-01-08T14:08:23.280Z,6.97
2019-01-08T14:11:06.139Z,5.93
2019-01-08T14:13:48.212Z,6.07
2019-01-08T14:16:30.032Z,4.80
2019-01-08T14:19:12.254Z,4.43
2019-01-08T14:21:54.889Z,5.17
2019-01-08T14:24:37.507Z,3.73
2019-01-08T14:27:19.073Z,4.10
2019-01-08T14:30:01.239Z,5.27
2019-01-08T14:32:43.282Z,5.13
2019-01-08T14:35:25.499Z,5.43
2019-01-08T14:38:07.017Z,4.80
2019-01-08T14:40:48.996Z,5.20
2019-01-08T14:43:30.969Z,5.33
2019-01-08T14:46:12.939Z,5.70
2019-01-08T14:48:55.406Z,5.17
2019-01-08T14:51:37.122Z,4.97
2019-01-08T14:54:19.304Z,4.33
2019-01-08T14:57:01.434Z,5.30
2019-01-08T14:59:43.555Z,5.20
2019-01-08T15:02:25.483Z,4.60
2019-01-08T15:05:07.369Z,5.27
2019-01-08T15:07:49.389Z,4.33
2019-01-08T15:10:30.787Z,4.57
2019-01-08T15:13:01.202Z,4.67
2019-01-08T15:15:43.186Z,4.90
2019-01-08T15:18:24.841Z,4.43
2019-01-08T15:21:07.067Z,5.20
2019-01-08T15:23:50.457Z,5.27
2019-01-08T15:26:32.352Z,5.57
2019-01-08T15:29:14.818Z,4.87
2019-01-08T15:31:56.533Z,4.80
2019-01-08T15:34:38.431Z,5.27
2019-01-08T15:37:20.662Z,6.43
2019-01-08T15:40:02.805Z,5.37
2019-01-08T15:42:44.981Z,5.53
2019-01-08T15:45:26.975Z,5.33
2019-01-08T15:48:09.488Z,5.33
2019-01-08T15:50:51.890Z,4.90
2019-01-08T15:53:33.649Z,4.97
2019-01-08T15:56:16.001Z,4.87
2019-01-08T15:59:04.378Z,4.77
2019-01-08T16:01:48.387Z,5.27
2019-01-08T16:04:30.581Z,5.27
2019-01-08T16:07:12.874Z,4.20
2019-01-08T16:09:54.547Z,5.23
2019-01-08T16:12:36.979Z,5.07
2019-01-08T16:15:19.123Z,5.37
2019-01-08T16:18:01.793Z,5.13
2019-01-08T16:20:43.991Z,4.23
2019-01-08T16:23:26.194Z,4.73
2019-01-08T16:26:08.067Z,4.30
2019-01-08T16:28:50.010Z,4.50
2019-01-08T16:31:31.716Z,4.67
2019-01-08T16:34:13.834Z,4.63
2019-01-08T16:36:57.031Z,4.40
2019-01-08T16:39:39.091Z,4.43
2019-01-08T16:42:22.634Z,4.87
2019-01-08T16:45:04.555Z,4.77
2019-01-08T16:47:46.717Z,4.57
2019-01-08T16:50:29.750Z,5.23
2019-01-08T16:53:11.749Z,3.83
2019-01-08T16:55:53.834Z,4.40
2019-01-08T16:58:35.942Z,4.37
2019-01-08T17:01:18.118Z,3.87
2019-01-08T17:04:00.038Z,4.77
2019-01-08T17:06:42.208Z,3.57
2019-01-08T17:09:24.529Z,4.47
2019-01-08T17:12:06.557Z,4.77
2019-01-08T17:14:49.106Z,4.53
2019-01-08T17:17:30.871Z,4.77
2019-01-08T17:20:13.541Z,6.07
2019-01-08T17:22:55.112Z,4.57
2019-01-08T17:25:37.301Z,4.93
2019-01-08T17:28:19.138Z,5.00
2019-01-08T17:31:00.906Z,4.70
2019-01-08T17:33:42.672Z,4.70
2019-01-08T17:36:13.455Z,5.00
2019-01-08T17:39:03.079Z,4.80
2019-01-08T17:41:51.620Z,4.83
2019-01-08T17:44:40.466Z,4.57
2019-01-08T17:47:22.759Z,4.57
2019-01-08T17:50:06.040Z,4.53
2019-01-08T17:52:53.639Z,5.30
2019-01-08T17:55:59.296Z,5.23
2019-01-08T17:58:38.274Z,4.87
2019-01-08T18:01:20.484Z,4.47
2019-01-08T18:04:04.825Z,5.23
2019-01-08T18:06:53.537Z,5.07
2019-01-08T18:09:58.905Z,4.80
2019-01-08T18:12:42.765Z,5.13
2019-01-08T18:15:31.479Z,5.10
2019-01-08T18:18:16.021Z,4.83
2019-01-08T18:21:06.729Z,5.33
2019-01-08T18:23:50.608Z,5.20
2019-01-08T18:26:23.722Z,4.13
2019-01-08T18:28:56.372Z,5.00
2019-01-08T18:31:29.667Z,5.00
2019-01-08T18:34:07.363Z,4.20
2019-01-08T18:36:37.663Z,4.60
2019-01-08T18:39:14.982Z,5.07
2019-01-08T18:41:45.774Z,4.97
2019-01-08T18:44:16.090Z,5.37
2019-01-08T18:46:47.129Z,4.97
2019-01-08T18:49:17.910Z,5.23
2019-01-08T18:51:48.759Z,3.93
2019-01-08T18:54:19.418Z,4.97
2019-01-08T18:56:49.713Z,4.60
2019-01-08T18:59:20.455Z,5.13
2019-01-08T19:01:50.750Z,4.40
2019-01-08T19:04:23.065Z,4.40
2019-01-08T19:06:53.490Z,4.30
2019-01-08T19:09:29.575Z,3.50
2019-01-08T19:12:00.206Z,4.10
2019-01-08T19:14:33.651Z,4.93
2019-01-08T19:17:04.029Z,5.00
2019-01-08T19:19:35.420Z,4.90
2019-01-08T19:22:05.830Z,5.10
2019-01-08T19:24:36.142Z,3.60
2019-01-08T19:27:06.775Z,4.57
2019-01-08T19:29:37.255Z,4.47
2019-01-08T19:32:07.638Z,5.43
2019-01-08T19:34:38.295Z,5.37
2019-01-08T19:37:09.580Z,4.30
2019-01-08T19:39:40.142Z,4.13
2019-01-08T19:42:10.821Z,4.30
2019-01-08T19:44:41.499Z,3.80
2019-01-08T19:47:12.659Z,4.70
2019-01-08T19:49:43.534Z,4.47
2019-01-08T19:52:13.843Z,4.67
2019-01-08T19:54:44.522Z,4.77
2019-01-08T19:57:15.310Z,4.27
2019-01-08T19:59:45.630Z,4.47
2019-01-08T20:02:16.648Z,4.87
2019-01-08T20:04:47.317Z,4.73
2019-01-08T20:07:17.982Z,4.40
2019-01-08T20:09:48.476Z,4.43
2019-01-08T20:12:19.104Z,4.70
2019-01-08T20:14:49.446Z,4.23
2019-01-08T20:17:19.912Z,3.97
2019-01-08T20:19:50.238Z,5.40
2019-01-08T20:22:20.828Z,4.63
2019-01-08T20:24:51.495Z,4.33
2019-01-08T20:27:21.881Z,5.97
2019-01-08T20:29:52.260Z,4.63
2019-01-08T20:32:22.634Z,6.20
2019-01-08T20:34:53.267Z,5.20
2019-01-08T20:37:23.765Z,4.97
2019-01-08T20:39:57.166Z,4.97
2019-01-08T20:42:27.725Z,5.57
2019-01-08T20:44:58.355Z,5.13
2019-01-08T20:47:28.983Z,5.47
2019-01-08T20:49:59.728Z,4.60
2019-01-08T20:52:30.659Z,4.67
2019-01-08T20:55:01.950Z,4.20
2019-01-08T20:57:32.837Z,5.00
2019-01-08T21:00:03.299Z,5.17
2019-01-08T21:02:35.415Z,4.10
2019-01-08T21:05:06.269Z,5.00
2019-01-08T21:07:36.827Z,4.53
2019-01-08T21:10:08.525Z,4.97
2019-01-08T21:12:40.111Z,5.00
2019-01-08T21:15:11.396Z,4.33
2019-01-08T21:17:41.987Z,5.17
2019-01-08T21:20:13.203Z,5.23
2019-01-08T21:22:43.709Z,4.63
2019-01-08T21:25:14.223Z,4.60
2019-01-08T21:27:44.605Z,4.37
2019-01-08T21:30:15.119Z,4.80
2019-01-08T21:32:45.445Z,4.77
2019-01-08T21:35:15.828Z,4.17
2019-01-08T21:37:46.166Z,4.00
2019-01-08T21:40:17.486Z,4.23
2019-01-08T21:42:47.998Z,3.97
2019-01-08T21:45:18.628Z,3.73
2019-01-08T21:47:49.221Z,4.13
2019-01-08T21:50:20.071Z,4.53
2019-01-08T21:52:50.418Z,4.83
2019-01-08T21:55:20.831Z,4.63
2019-01-08T21:57:51.146Z,4.50
2019-01-08T22:00:24.450Z,4.33
2019-01-08T22:02:55.273Z,4.53
2019-01-08T22:05:25.618Z,4.20
2019-01-08T22:07:55.855Z,5.07
2019-01-08T22:10:26.154Z,4.47
2019-01-08T22:12:56.397Z,4.97
2019-01-08T22:15:26.864Z,4.93
2019-01-08T22:17:57.297Z,4.47
2019-01-08T22:20:28.652Z,5.17
2019-01-08T22:22:58.895Z,4.87
2019-01-08T22:25:29.213Z,3.43
2019-01-08T22:27:59.572Z,4.40
2019-01-08T22:30:30.016Z,4.03
2019-01-08T22:33:00.562Z,4.20
2019-01-08T22:35:30.804Z,4.60
2019-01-08T22:38:01.038Z,4.63
2019-01-08T22:40:31.352Z,4.93
2019-01-08T22:43:01.710Z,5.57
2019-01-08T22:45:32.124Z,5.23
2019-01-08T22:48:02.589Z,4.87
2019-01-08T22:50:32.833Z,5.63
2019-01-08T22:53:03.110Z,5.47
2019-01-08T22:55:33.381Z,5.53
2019-01-08T22:58:04.093Z,5.33
2019-01-08T23:01:08.434Z,5.00
2019-01-08T23:03:39.078Z,4.57
2019-01-08T23:06:09.428Z,4.80
2019-01-08T23:08:39.753Z,4.80
2019-01-08T23:11:10.002Z,4.57
2019-01-08T23:13:40.338Z,5.00
2019-01-08T23:16:10.741Z,4.70
2019-01-08T23:18:42.034Z,5.10
2019-01-08T23:21:12.267Z,4.90
2019-01-08T23:23:42.537Z,5.30
2019-01-08T23:26:12.823Z,4.57
2019-01-08T23:28:43.193Z,5.20
2019-01-08T23:31:13.420Z,4.77
2019-01-08T23:33:43.682Z,4.83
2019-01-08T23:36:14.009Z,4.87
2019-01-08T23:38:44.674Z,4.70
2019-01-08T23:41:14.992Z,5.37
2019-01-08T23:43:45.229Z,4.30
2019-01-08T23:46:15.602Z,5.47
2019-01-08T23:48:45.866Z,5.13
2019-01-08T23:51:16.139Z,4.93
2019-01-08T23:53:48.725Z,4.43
2019-01-08T23:56:19.110Z,5.40
2019-01-08T23:58:49.452Z,5.40
